Time;durP1;ratioP1;P1;durP2;ratioP2;P2;SDS_P1;SDS_P2;PMS_P1;PMS_P2;Temp;Humidity;BMP_temperature;BMP_pressure;BME280_temperature;BME280_humidity;BME280_pressure;Samples;Min_cycle;Max_cycle;Signal;HPM_P1;HPM_P2
2023/07/03 00:00:17;;;;;;;8.00;3.45;;;12.90;76.30;;;;;;4996046;28;20042;-84
2023/07/03 00:02:45;;;;;;;9.27;3.85;;;12.90;76.60;;;;;;5014930;28;20025;-82
2023/07/03 00:05:11;;;;;;;12.00;3.97;;;12.90;77.20;;;;;;5013087;28;20042;-83
2023/07/03 00:07:38;;;;;;;8.75;3.70;;;13.00;77.20;;;;;;5018986;28;20080;-83
2023/07/03 00:10:04;;;;;;;11.40;3.85;;;12.90;77.10;;;;;;5017610;28;20033;-83
2023/07/03 00:12:31;;;;;;;10.80;3.50;;;12.90;77.20;;;;;;5011956;28;20106;-83
2023/07/03 00:14:57;;;;;;;7.35;3.85;;;13.00;76.50;;;;;;5011050;28;20040;-84
2023/07/03 00:17:22;;;;;;;8.32;3.90;;;13.00;76.90;;;;;;5024376;28;20468;-83
2023/07/03 00:19:48;;;;;;;8.68;4.25;;;13.00;76.40;;;;;;5026763;28;20068;-84
2023/07/03 00:22:13;;;;;;;11.90;4.07;;;13.00;76.50;;;;;;5010660;28;20038;-85
2023/07/03 00:24:39;;;;;;;8.25;3.75;;;13.00;76.60;;;;;;5009902;28;20094;-84
2023/07/03 00:27:04;;;;;;;9.40;3.75;;;13.00;76.30;;;;;;5011473;28;20092;-83
2023/07/03 00:29:32;;;;;;;9.45;3.85;;;13.00;76.80;;;;;;5008786;28;20029;-82
2023/07/03 00:31:59;;;;;;;10.05;3.70;;;13.00;77.00;;;;;;5009850;28;20037;-83
2023/07/03 00:34:25;;;;;;;13.93;4.22;;;13.10;76.30;;;;;;5009481;28;20092;-83
2023/07/03 00:36:50;;;;;;;13.40;4.35;;;13.10;76.50;;;;;;5005678;28;20080;-82
2023/07/03 00:39:16;;;;;;;12.75;3.83;;;13.10;76.40;;;;;;5012047;28;20033;-83
2023/07/03 00:41:42;;;;;;;14.63;3.72;;;13.10;76.40;;;;;;5008119;28;20026;-84
2023/07/03 00:44:14;;;;;;;10.52;3.92;;;13.10;76.30;;;;;;5007143;28;20045;-83
2023/07/03 00:46:41;;;;;;;10.60;3.75;;;13.10;76.40;;;;;;5001853;28;20034;-84
2023/07/03 00:49:09;;;;;;;14.43;3.95;;;13.20;76.30;;;;;;5010242;28;20037;-83
2023/07/03 00:51:35;;;;;;;9.15;3.47;;;13.20;76.20;;;;;;5006406;28;20030;-83
2023/07/03 00:54:01;;;;;;;9.75;3.88;;;13.20;76.10;;;;;;5012839;28;20052;-85
2023/07/03 00:56:27;;;;;;;13.90;4.03;;;13.20;76.30;;;;;;5028816;28;20026;-83
2023/07/03 00:58:53;;;;;;;13.15;3.85;;;13.20;76.20;;;;;;5011708;28;20026;-85
2023/07/03 01:01:25;;;;;;;10.73;4.15;;;13.20;76.10;;;;;;5008468;28;20157;-86
2023/07/03 01:03:59;;;;;;;10.80;4.05;;;13.30;76.10;;;;;;5009959;28;20036;-84
2023/07/03 01:06:31;;;;;;;10.80;3.75;;;13.40;76.20;;;;;;5020661;28;20032;-83
2023/07/03 01:08:59;;;;;;;11.05;4.50;;;13.40;76.30;;;;;;5012895;28;20587;-82
2023/07/03 01:11:25;;;;;;;8.60;3.78;;;13.50;75.70;;;;;;5006223;28;20033;-82
2023/07/03 01:13:53;;;;;;;9.32;3.42;;;13.50;75.80;;;;;;5014200;28;20070;-82
2023/07/03 01:16:19;;;;;;;11.20;4.13;;;13.50;76.00;;;;;;5015182;28;20022;-83
2023/07/03 01:18:46;;;;;;;7.80;3.88;;;13.60;75.50;;;;;;5023855;28;20038;-82
2023/07/03 01:21:24;;;;;;;9.05;3.85;;;13.60;75.80;;;;;;5023704;28;20037;-81
2023/07/03 01:23:58;;;;;;;7.40;3.25;;;13.70;75.00;;;;;;5017808;28;20386;-83
2023/07/03 01:26:26;;;;;;;7.50;3.47;;;13.70;75.20;;;;;;5016250;28;20041;-83
2023/07/03 01:28:56;;;;;;;12.35;3.63;;;13.70;75.10;;;;;;5012050;28;20026;-82
2023/07/03 01:31:24;;;;;;;7.45;3.75;;;13.80;74.70;;;;;;5006822;28;20030;-82
2023/07/03 01:33:52;;;;;;;11.15;4.18;;;13.80;75.00;;;;;;5015663;28;20405;-82
2023/07/03 01:36:17;;;;;;;10.27;3.95;;;13.80;75.10;;;;;;5016372;28;20029;-85
2023/07/03 01:38:45;;;;;;;9.93;3.95;;;13.80;75.00;;;;;;5012562;28;20473;-82
2023/07/03 01:41:12;;;;;;;11.63;4.45;;;13.90;74.90;;;;;;5007024;28;20029;-82
2023/07/03 01:43:39;;;;;;;13.27;4.25;;;13.90;74.70;;;;;;5015834;28;20116;-82
2023/07/03 01:46:06;;;;;;;9.70;4.03;;;13.90;74.80;;;;;;5037391;28;20029;-82
2023/07/03 01:48:32;;;;;;;11.88;4.43;;;13.90;74.70;;;;;;5010597;28;20100;-83
2023/07/03 01:50:58;;;;;;;10.48;4.07;;;14.00;74.70;;;;;;5010936;28;20120;-84
2023/07/03 01:53:28;;;;;;;11.73;4.10;;;13.90;74.80;;;;;;5009845;28;20022;-83
2023/07/03 01:56:05;;;;;;;8.60;3.80;;;14.00;74.50;;;;;;5005146;28;20112;-83
2023/07/03 01:58:46;;;;;;;10.90;3.95;;;14.00;74.90;;;;;;5014727;28;20022;-81
2023/07/03 02:01:18;;;;;;;12.07;4.28;;;13.90;74.90;;;;;;5015038;28;20046;-83
2023/07/03 02:03:52;;;;;;;11.50;3.83;;;14.00;74.70;;;;;;5015500;28;20061;-82
2023/07/03 02:06:33;;;;;;;10.82;4.15;;;14.00;74.70;;;;;;5019919;28;20023;-85
2023/07/03 02:09:00;;;;;;;12.95;4.10;;;14.00;74.40;;;;;;5008504;28;21392;-82
2023/07/03 02:11:27;;;;;;;10.40;3.63;;;14.00;74.60;;;;;;5012173;28;20076;-84
2023/07/03 02:13:53;;;;;;;11.55;3.88;;;14.00;74.70;;;;;;5016292;28;20033;-85
2023/07/03 02:16:18;;;;;;;11.32;4.22;;;14.00;74.70;;;;;;5013176;28;20030;-84
2023/07/03 02:18:46;;;;;;;12.80;3.97;;;14.10;74.80;;;;;;5019248;28;20437;-85
2023/07/03 02:21:12;;;;;;;9.60;4.10;;;14.00;74.70;;;;;;5015965;28;20076;-84
2023/07/03 02:23:38;;;;;;;13.95;4.05;;;14.10;74.60;;;;;;5016346;28;20099;-83
2023/07/03 02:26:03;;;;;;;10.25;3.85;;;14.10;74.80;;;;;;5017824;28;20038;-84
2023/07/03 02:28:29;;;;;;;13.30;3.95;;;14.10;74.70;;;;;;5012897;28;20378;-85
2023/07/03 02:30:54;;;;;;;10.40;4.05;;;14.10;74.50;;;;;;5013833;28;20070;-83
2023/07/03 02:33:20;;;;;;;12.80;3.80;;;14.10;74.70;;;;;;5025027;28;20053;-83
2023/07/03 02:35:45;;;;;;;14.38;4.20;;;14.10;75.00;;;;;;5017294;28;20030;-83
2023/07/03 02:38:11;;;;;;;13.73;4.22;;;14.10;75.10;;;;;;5019432;28;20030;-84
2023/07/03 02:40:37;;;;;;;9.45;3.95;;;14.10;74.90;;;;;;5013544;28;20034;-83
2023/07/03 02:43:03;;;;;;;12.02;4.32;;;14.10;75.40;;;;;;5019450;28;20030;-84
2023/07/03 02:45:41;;;;;;;10.43;3.97;;;14.00;75.50;;;;;;5011954;28;20033;-83
2023/07/03 02:48:08;;;;;;;10.10;4.10;;;14.10;75.10;;;;;;5013490;28;20084;-83
2023/07/03 02:50:34;;;;;;;13.80;4.55;;;14.00;75.40;;;;;;5017613;28;20083;-83
2023/07/03 02:52:59;;;;;;;17.48;3.90;;;14.00;75.60;;;;;;5010454;28;20428;-84
2023/07/03 02:55:25;;;;;;;13.65;4.35;;;13.90;75.70;;;;;;5012710;28;20026;-83
2023/07/03 02:57:51;;;;;;;12.52;4.32;;;13.80;75.90;;;;;;5010476;28;20026;-83
2023/07/03 03:00:17;;;;;;;12.05;4.18;;;13.70;76.40;;;;;;5004615;28;20042;-87
2023/07/03 03:02:43;;;;;;;10.27;3.75;;;13.60;76.50;;;;;;5020361;28;20465;-83
2023/07/03 03:05:09;;;;;;;16.55;4.72;;;13.70;76.60;;;;;;5010240;28;20060;-84
2023/07/03 03:07:35;;;;;;;10.45;3.70;;;13.60;77.00;;;;;;5010469;28;20037;-83
2023/07/03 03:10:01;;;;;;;14.63;4.68;;;13.60;77.20;;;;;;5008848;28;20460;-83
2023/07/03 03:12:27;;;;;;;15.07;4.30;;;13.60;77.10;;;;;;5013191;28;20056;-85
2023/07/03 03:14:52;;;;;;;10.30;4.10;;;13.50;77.30;;;;;;5014634;28;20041;-83
2023/07/03 03:17:18;;;;;;;11.73;4.10;;;13.60;77.40;;;;;;5010034;28;20477;-83
2023/07/03 03:19:44;;;;;;;15.32;4.18;;;13.50;77.80;;;;;;5027739;28;20030;-84
2023/07/03 03:22:09;;;;;;;12.75;5.00;;;13.50;77.90;;;;;;5012623;28;20030;-86
2023/07/03 03:24:35;;;;;;;12.50;4.55;;;13.50;78.00;;;;;;5008012;28;20719;-83
2023/07/03 03:27:06;;;;;;;15.60;5.20;;;13.50;78.50;;;;;;5008557;28;20616;-83
2023/07/03 03:29:32;;;;;;;14.95;4.85;;;13.50;78.70;;;;;;5007969;28;20041;-83
2023/07/03 03:31:58;;;;;;;12.85;4.93;;;13.50;79.00;;;;;;5013268;28;20439;-85
2023/07/03 03:34:23;;;;;;;14.90;4.60;;;13.50;78.90;;;;;;5012532;28;20022;-83
2023/07/03 03:36:49;;;;;;;13.45;4.57;;;13.50;79.10;;;;;;5007225;28;20038;-84
2023/07/03 03:39:14;;;;;;;10.40;5.43;;;13.50;79.40;;;;;;5021705;28;20026;-88
2023/07/03 03:41:41;;;;;;;15.80;4.80;;;13.40;79.60;;;;;;5030224;28;20058;-88
2023/07/03 03:44:07;;;;;;;12.63;4.40;;;13.50;79.80;;;;;;5035611;28;20018;-89
2023/07/03 03:46:34;;;;;;;14.65;4.85;;;13.40;80.10;;;;;;5001603;23;20094;-71
2023/07/03 03:49:00;;;;;;;13.63;5.10;;;13.50;80.30;;;;;;4982020;28;20137;-70
2023/07/03 03:51:26;;;;;;;9.40;4.50;;;13.40;80.30;;;;;;4986653;28;20037;-71
2023/07/03 03:53:51;;;;;;;14.98;5.00;;;13.40;80.50;;;;;;4996334;28;20030;-73
2023/07/03 03:56:19;;;;;;;10.93;4.60;;;13.40;80.50;;;;;;4989838;28;20108;-73
2023/07/03 03:58:45;;;;;;;16.10;5.05;;;13.30;80.80;;;;;;4988592;28;20026;-73
2023/07/03 04:01:11;;;;;;;15.85;4.72;;;13.30;81.10;;;;;;4983653;28;20121;-70
2023/07/03 04:03:36;;;;;;;18.38;5.80;;;13.40;81.30;;;;;;4987042;28;21851;-71
2023/07/03 04:06:02;;;;;;;15.15;5.60;;;13.40;81.10;;;;;;4977875;28;20498;-71
2023/07/03 04:08:27;;;;;;;10.75;4.82;;;13.50;80.90;;;;;;4982990;28;20121;-70
2023/07/03 04:10:53;;;;;;;18.00;5.28;;;13.60;81.00;;;;;;4994354;28;20160;-71
2023/07/03 04:13:18;;;;;;;13.30;4.80;;;13.70;81.00;;;;;;4970138;28;20185;-72
2023/07/03 04:15:54;;;;;;;16.60;4.95;;;13.80;80.80;;;;;;4976273;28;20031;-71
2023/07/03 04:18:20;;;;;;;13.35;4.85;;;13.90;80.70;;;;;;4983672;28;20095;-71
2023/07/03 04:20:46;;;;;;;15.35;4.85;;;13.90;80.90;;;;;;4983077;28;20042;-71
2023/07/03 04:23:12;;;;;;;15.75;5.05;;;13.90;80.60;;;;;;4989876;28;20029;-71
2023/07/03 04:25:38;;;;;;;15.18;4.82;;;14.00;80.70;;;;;;4984473;28;20097;-71
2023/07/03 04:28:04;;;;;;;14.95;5.05;;;14.00;80.80;;;;;;4984665;28;20029;-67
2023/07/03 04:30:29;;;;;;;15.20;4.80;;;14.00;81.00;;;;;;4992411;28;20613;-66
2023/07/03 04:32:55;;;;;;;13.57;5.45;;;14.00;80.90;;;;;;4986588;28;20336;-66
2023/07/03 04:35:21;;;;;;;18.13;5.47;;;14.10;81.00;;;;;;4988357;28;20034;-66
2023/07/03 04:37:47;;;;;;;19.02;5.43;;;14.10;80.80;;;;;;4986634;28;20125;-66
2023/07/03 04:40:13;;;;;;;13.35;4.75;;;14.10;80.80;;;;;;4986195;28;20344;-66
2023/07/03 04:42:39;;;;;;;13.40;5.10;;;14.20;81.20;;;;;;4989158;28;20022;-66
2023/07/03 04:45:07;;;;;;;15.88;4.93;;;14.20;80.80;;;;;;4971440;28;20113;-66
2023/07/03 04:47:32;;;;;;;16.33;4.57;;;14.30;80.90;;;;;;4988367;28;20161;-66
2023/07/03 04:49:58;;;;;;;13.07;4.70;;;14.30;81.10;;;;;;4989050;28;20426;-66
2023/07/03 04:52:27;;;;;;;18.35;5.25;;;14.40;80.70;;;;;;4984152;28;20108;-66
2023/07/03 04:54:55;;;;;;;12.65;4.75;;;14.40;80.70;;;;;;4990627;28;20026;-66
2023/07/03 04:57:21;;;;;;;11.55;4.85;;;14.50;81.00;;;;;;4988165;28;20034;-66
2023/07/03 04:59:48;;;;;;;13.65;4.70;;;14.50;80.80;;;;;;4988317;28;20406;-68
2023/07/03 05:02:17;;;;;;;15.82;5.32;;;14.50;80.50;;;;;;4982597;28;20038;-66
2023/07/03 05:04:42;;;;;;;15.88;4.95;;;14.60;80.90;;;;;;4981155;28;20478;-67
2023/07/03 05:07:08;;;;;;;16.17;5.22;;;14.60;80.50;;;;;;4979271;28;20069;-66
2023/07/03 05:09:33;;;;;;;14.75;5.32;;;14.70;80.70;;;;;;4993235;28;20034;-67
2023/07/03 05:11:59;;;;;;;17.98;5.20;;;14.80;80.10;;;;;;4980905;28;20080;-66
2023/07/03 05:14:25;;;;;;;17.83;5.65;;;15.00;80.50;;;;;;4990287;28;20110;-67
2023/07/03 05:16:50;;;;;;;15.57;5.60;;;15.00;80.10;;;;;;4989131;28;20084;-66
2023/07/03 05:19:16;;;;;;;15.40;4.60;;;15.00;80.00;;;;;;4984987;28;20023;-66
2023/07/03 05:21:41;;;;;;;20.77;5.45;;;15.00;80.40;;;;;;4985758;28;20093;-66
2023/07/03 05:24:07;;;;;;;14.35;4.75;;;15.00;80.40;;;;;;4983018;28;20159;-67
2023/07/03 05:26:32;;;;;;;19.17;5.35;;;15.10;80.00;;;;;;4984863;28;20419;-66
2023/07/03 05:28:58;;;;;;;15.25;4.53;;;15.30;80.20;;;;;;4991598;28;20098;-66
2023/07/03 05:31:23;;;;;;;16.02;4.60;;;15.50;80.10;;;;;;4982241;28;20030;-67
2023/07/03 05:33:49;;;;;;;13.65;4.65;;;15.50;79.80;;;;;;4988099;28;20555;-66
2023/07/03 05:36:16;;;;;;;15.40;5.53;;;15.50;80.00;;;;;;4985476;28;20096;-67
2023/07/03 05:38:41;;;;;;;16.98;5.45;;;15.40;80.20;;;;;;4990382;28;20105;-66
2023/07/03 05:41:07;;;;;;;13.38;4.47;;;15.30;80.70;;;;;;4985568;28;20746;-68
2023/07/03 05:43:32;;;;;;;15.05;4.65;;;15.20;80.50;;;;;;4988448;28;20034;-67
2023/07/03 05:45:58;;;;;;;11.77;4.43;;;15.20;81.40;;;;;;4982496;28;20046;-67
2023/07/03 05:48:24;;;;;;;14.35;4.90;;;15.20;81.40;;;;;;4987646;28;20061;-67
2023/07/03 05:50:50;;;;;;;19.42;5.05;;;15.20;81.70;;;;;;4983103;28;20510;-67
2023/07/03 05:53:16;;;;;;;13.98;4.65;;;15.20;81.30;;;;;;4993439;28;20111;-68
2023/07/03 05:55:41;;;;;;;18.90;4.63;;;15.20;81.50;;;;;;4991720;28;20421;-67
2023/07/03 05:58:06;;;;;;;17.38;4.22;;;15.20;81.80;;;;;;4979408;28;20254;-67
2023/07/03 06:00:32;;;;;;;14.70;4.65;;;15.20;81.20;;;;;;4982739;28;20474;-67
2023/07/03 06:02:59;;;;;;;15.98;3.95;;;15.10;81.20;;;;;;4987218;28;20026;-67
2023/07/03 06:05:25;;;;;;;16.92;3.85;;;15.20;81.30;;;;;;4984721;28;20588;-67
2023/07/03 06:07:51;;;;;;;15.18;4.25;;;15.20;81.30;;;;;;4987246;28;20030;-66
2023/07/03 06:10:17;;;;;;;16.95;3.78;;;15.10;81.00;;;;;;4984186;28;20126;-68
2023/07/03 06:12:43;;;;;;;11.55;3.33;;;15.20;79.80;;;;;;4977585;28;20042;-67
2023/07/03 06:15:09;;;;;;;17.25;3.78;;;15.20;79.60;;;;;;4983835;28;20368;-68
2023/07/03 06:17:36;;;;;;;12.75;3.40;;;15.30;79.30;;;;;;4988445;28;20089;-67
2023/07/03 06:20:03;;;;;;;12.73;3.38;;;15.40;79.20;;;;;;4987512;28;20447;-67
2023/07/03 06:22:28;;;;;;;11.07;3.50;;;15.50;78.80;;;;;;4987210;28;20031;-66
2023/07/03 06:24:54;;;;;;;12.55;3.55;;;15.40;79.00;;;;;;4989366;28;20452;-66
2023/07/03 06:27:19;;;;;;;11.90;3.60;;;15.50;78.80;;;;;;4992553;28;20056;-66
2023/07/03 06:29:45;;;;;;;15.15;3.50;;;15.50;78.90;;;;;;4983736;28;20046;-67
2023/07/03 06:32:11;;;;;;;10.63;3.45;;;15.50;78.40;;;;;;4987341;28;20487;-67
2023/07/03 06:34:37;;;;;;;8.98;3.13;;;15.60;78.80;;;;;;4991032;28;20088;-68
2023/07/03 06:37:05;;;;;;;12.40;3.33;;;15.70;78.60;;;;;;4993863;28;20351;-66
2023/07/03 06:39:31;;;;;;;14.57;3.65;;;15.60;78.40;;;;;;4988247;28;20041;-68
2023/07/03 06:41:57;;;;;;;16.75;4.13;;;15.70;78.20;;;;;;4988750;28;20071;-67
2023/07/03 06:44:22;;;;;;;13.02;3.83;;;15.80;78.00;;;;;;4988510;28;20100;-67
2023/07/03 06:46:50;;;;;;;12.82;3.28;;;16.00;77.90;;;;;;4981851;28;20050;-66
2023/07/03 06:49:16;;;;;;;12.30;3.60;;;16.00;78.10;;;;;;4986359;28;20179;-67
2023/07/03 06:51:42;;;;;;;13.50;2.90;;;16.10;77.40;;;;;;4965477;28;20168;-66
2023/07/03 06:54:08;;;;;;;11.57;3.42;;;16.00;77.50;;;;;;4988311;28;20046;-67
2023/07/03 06:56:33;;;;;;;10.15;3.10;;;16.10;78.30;;;;;;4999506;28;20033;-67
2023/07/03 06:58:58;;;;;;;11.45;3.03;;;16.10;78.00;;;;;;4989640;28;20616;-67
2023/07/03 07:01:27;;;;;;;10.23;3.13;;;16.20;77.60;;;;;;4967626;28;20122;-68
2023/07/03 07:03:53;;;;;;;14.40;3.80;;;16.10;77.00;;;;;;4992507;28;20079;-67
2023/07/03 07:06:23;;;;;;;10.55;3.10;;;16.30;77.30;;;;;;4981131;28;20042;-67
2023/07/03 07:08:49;;;;;;;12.55;3.10;;;16.60;77.30;;;;;;4981694;28;20106;-67
2023/07/03 07:11:26;;;;;;;7.15;3.25;;;16.50;76.50;;;;;;4980830;28;20373;-67
2023/07/03 07:13:52;;;;;;;11.73;3.25;;;16.70;75.50;;;;;;4983015;28;20022;-67
2023/07/03 07:16:20;;;;;;;18.13;3.42;;;16.70;74.90;;;;;;4984112;28;20141;-66
2023/07/03 07:18:51;;;;;;;10.88;3.50;;;16.90;76.40;;;;;;4987541;28;20411;-67
2023/07/03 07:21:16;;;;;;;13.88;3.35;;;16.90;75.90;;;;;;4985687;28;20026;-67
2023/07/03 07:23:42;;;;;;;10.82;3.33;;;16.80;75.20;;;;;;4988386;28;20033;-66
2023/07/03 07:26:08;;;;;;;9.95;3.55;;;17.10;76.40;;;;;;4959132;28;20392;-67
2023/07/03 07:28:33;;;;;;;12.55;3.30;;;17.00;75.00;;;;;;4992777;28;20111;-66
2023/07/03 07:30:59;;;;;;;14.57;4.00;;;17.20;75.30;;;;;;4989606;28;20061;-67
2023/07/03 07:33:24;;;;;;;17.20;3.78;;;17.10;75.10;;;;;;4988533;28;20036;-66
2023/07/03 07:35:51;;;;;;;11.82;3.22;;;17.30;75.20;;;;;;4979345;28;20378;-65
2023/07/03 07:38:18;;;;;;;11.07;3.67;;;17.30;74.60;;;;;;4982800;28;20495;-66
2023/07/03 07:40:43;;;;;;;10.32;3.10;;;17.00;75.10;;;;;;4988202;28;20041;-65
2023/07/03 07:43:09;;;;;;;15.07;3.95;;;17.40;73.90;;;;;;4990439;28;20560;-66
2023/07/03 07:45:34;;;;;;;13.10;3.75;;;17.50;74.60;;;;;;4984343;28;20134;-67
2023/07/03 07:48:00;;;;;;;12.80;3.55;;;17.70;74.40;;;;;;4974840;28;20388;-67
2023/07/03 07:50:27;;;;;;;10.70;3.15;;;17.60;74.20;;;;;;4985556;28;20088;-69
2023/07/03 07:52:53;;;;;;;16.60;3.28;;;17.80;72.60;;;;;;4972545;28;20077;-66
2023/07/03 07:55:19;;;;;;;11.85;3.17;;;18.10;71.60;;;;;;4989210;28;20137;-66
2023/07/03 07:57:44;;;;;;;11.23;3.00;;;18.00;71.70;;;;;;4985331;28;20485;-67
2023/07/03 08:00:10;;;;;;;13.35;2.65;;;17.90;70.70;;;;;;4982421;28;20033;-67
2023/07/03 08:02:36;;;;;;;8.45;2.75;;;17.80;68.00;;;;;;4987102;28;20451;-66
2023/07/03 08:05:02;;;;;;;10.32;2.70;;;18.00;69.00;;;;;;4975803;28;20197;-67
2023/07/03 08:07:28;;;;;;;11.23;2.83;;;18.40;68.50;;;;;;4989593;28;20311;-67
2023/07/03 08:09:53;;;;;;;13.88;2.47;;;18.30;67.60;;;;;;4994064;28;20030;-67
2023/07/03 08:12:19;;;;;;;8.65;2.63;;;18.20;67.70;;;;;;4964976;28;20684;-67
2023/07/03 08:14:44;;;;;;;10.88;3.22;;;18.70;66.20;;;;;;4983719;28;20050;-67
2023/07/03 08:17:10;;;;;;;14.73;2.53;;;18.70;67.50;;;;;;4986486;28;20052;-67
2023/07/03 08:19:35;;;;;;;13.18;2.55;;;18.40;67.40;;;;;;4991238;28;20034;-67
2023/07/03 08:22:00;;;;;;;8.07;3.08;;;18.70;66.10;;;;;;4985527;28;20113;-68
2023/07/03 08:24:26;;;;;;;9.48;2.70;;;18.50;66.10;;;;;;4990451;28;20096;-67
2023/07/03 08:26:53;;;;;;;12.40;2.75;;;18.30;66.70;;;;;;4987265;28;20069;-67
2023/07/03 08:29:18;;;;;;;13.00;2.90;;;18.50;65.80;;;;;;4981963;28;20031;-67
2023/07/03 08:31:44;;;;;;;11.15;2.83;;;18.50;66.60;;;;;;4985775;28;20042;-67
2023/07/03 08:34:10;;;;;;;8.98;2.85;;;18.60;66.90;;;;;;4996228;28;20112;-67
2023/07/03 08:36:36;;;;;;;10.93;3.03;;;18.70;66.70;;;;;;4970945;28;20050;-68
2023/07/03 08:39:03;;;;;;;16.83;2.75;;;18.70;66.50;;;;;;4985186;28;20139;-67
2023/07/03 08:41:34;;;;;;;11.20;2.63;;;18.40;68.30;;;;;;4984086;28;20054;-67
2023/07/03 08:44:00;;;;;;;;;;;18.70;68.20;;;;;;4972825;28;20030;-67
2023/07/03 08:46:31;;;;;;;12.25;2.78;;;19.00;67.60;;;;;;4984500;28;19924;-68
2023/07/03 08:49:04;;;;;;;9.95;2.97;;;19.30;68.00;;;;;;4998092;28;20026;-68
2023/07/03 08:51:32;;;;;;;8.68;2.78;;;19.60;66.80;;;;;;4987488;28;20022;-68
2023/07/03 08:54:16;;;;;;;12.93;3.00;;;20.00;66.10;;;;;;4993670;28;20088;-67
2023/07/03 08:56:42;;;;;;;9.35;2.42;;;20.00;63.20;;;;;;4984366;28;20030;-68
2023/07/03 08:59:08;;;;;;;8.15;2.50;;;19.50;62.90;;;;;;4970288;28;20105;-66
2023/07/03 09:01:59;;;;;;;11.43;2.15;;;19.30;62.00;;;;;;4991330;28;20172;-66
2023/07/03 09:04:45;;;;;;;6.50;2.17;;;20.00;62.40;;;;;;4995668;28;20092;-65
2023/07/03 09:07:24;;;;;;;10.55;2.13;;;19.90;61.50;;;;;;4980165;28;20367;-67
2023/07/03 09:09:56;;;;;;;5.80;1.65;;;19.40;57.90;;;;;;4979907;28;20122;-66
2023/07/03 09:12:36;;;;;;;10.88;1.85;;;18.90;58.80;;;;;;4983942;28;20068;-66
2023/07/03 09:15:17;;;;;;;7.38;1.40;;;18.70;59.00;;;;;;4982970;28;20125;-66
2023/07/03 09:17:44;;;;;;;10.50;2.03;;;18.80;59.10;;;;;;4979344;28;20036;-66
2023/07/03 09:20:12;;;;;;;5.70;1.50;;;18.70;59.50;;;;;;4986509;28;20436;-68
2023/07/03 09:22:51;;;;;;;7.78;1.60;;;18.70;59.00;;;;;;4988232;28;20029;-66
2023/07/03 09:25:32;;;;;;;6.57;1.90;;;18.80;58.10;;;;;;4980312;28;20037;-66
2023/07/03 09:27:58;;;;;;;;;;;18.60;57.70;;;;;;4991849;28;20488;-67
2023/07/03 09:30:24;;;;;;;9.85;1.70;;;18.60;59.20;;;;;;4988871;28;19925;-67
2023/07/03 09:32:49;;;;;;;7.95;1.52;;;18.60;59.50;;;;;;4991645;28;20038;-66
2023/07/03 09:35:20;;;;;;;8.82;1.88;;;18.70;60.10;;;;;;4988756;28;20086;-67
2023/07/03 09:37:51;;;;;;;9.60;1.83;;;18.90;59.80;;;;;;4988347;28;20307;-68
2023/07/03 09:40:31;;;;;;;9.88;2.15;;;18.90;60.10;;;;;;4987740;28;20026;-67
2023/07/03 09:42:57;;;;;;;7.38;1.85;;;18.70;59.50;;;;;;4974150;28;20105;-67
2023/07/03 09:45:30;;;;;;;9.23;2.20;;;19.50;57.50;;;;;;4987566;28;20429;-67
2023/07/03 09:47:59;;;;;;;8.65;1.83;;;19.70;57.10;;;;;;4973569;28;20048;-68
2023/07/03 09:50:28;;;;;;;7.10;2.05;;;19.70;57.00;;;;;;4984843;28;20323;-67
2023/07/03 09:52:57;;;;;;;13.60;2.28;;;20.50;57.20;;;;;;4984567;28;20089;-68
2023/07/03 09:55:25;;;;;;;8.63;1.98;;;21.50;56.80;;;;;;4989518;28;20404;-67
2023/07/03 09:57:50;;;;;;;10.05;2.03;;;21.10;54.80;;;;;;4989048;28;20435;-67
2023/07/03 10:00:20;;;;;;;8.45;2.10;;;20.80;56.50;;;;;;4992655;28;20022;-67
2023/07/03 10:02:50;;;;;;;6.32;1.63;;;20.70;56.90;;;;;;4988210;28;20037;-67
2023/07/03 10:05:19;;;;;;;9.27;2.38;;;20.20;54.60;;;;;;4981525;28;20085;-67
2023/07/03 10:07:46;;;;;;;6.95;1.70;;;20.70;55.00;;;;;;4982344;28;20301;-68
2023/07/03 10:10:16;;;;;;;11.38;2.17;;;20.30;54.70;;;;;;4985669;28;20108;-69
2023/07/03 10:13:06;;;;;;;6.38;1.75;;;20.00;55.80;;;;;;4987347;28;20366;-67
2023/07/03 10:15:37;;;;;;;9.52;2.22;;;19.30;57.60;;;;;;4982434;28;20803;-67
2023/07/03 10:18:08;;;;;;;7.22;1.77;;;18.80;58.80;;;;;;4983363;28;20026;-66
2023/07/03 10:20:39;;;;;;;10.32;2.40;;;18.40;59.80;;;;;;4990603;28;20030;-66
2023/07/03 10:23:08;;;;;;;11.35;2.97;;;18.10;62.80;;;;;;4985734;28;20034;-67
2023/07/03 10:25:41;;;;;;;14.20;3.17;;;17.40;67.20;;;;;;4980578;28;20133;-66
2023/07/03 10:28:18;;;;;;;12.18;2.97;;;16.90;72.80;;;;;;4985878;28;20080;-67
2023/07/03 10:30:45;;;;;;;10.27;2.60;;;16.10;79.50;;;;;;4966095;28;20039;-67
2023/07/03 10:33:14;;;;;;;11.38;2.67;;;15.50;82.20;;;;;;4988660;28;20053;-67
2023/07/03 10:35:42;;;;;;;11.73;2.65;;;15.00;84.50;;;;;;4982378;28;20044;-68
2023/07/03 10:38:42;;;;;;;11.00;2.80;;;15.10;86.20;;;;;;4987085;28;20315;-67
2023/07/03 10:41:19;;;;;;;6.57;2.03;;;15.40;85.90;;;;;;4966937;28;20030;-67
2023/07/03 10:43:51;;;;;;;6.30;1.95;;;15.30;85.60;;;;;;4983261;28;20038;-68
2023/07/03 10:46:26;;;;;;;5.65;1.38;;;15.30;85.50;;;;;;4994647;28;20053;-69
2023/07/03 10:48:56;;;;;;;11.00;1.98;;;15.10;84.70;;;;;;4985034;28;20031;-67
2023/07/03 10:52:05;;;;;;;9.23;1.98;;;15.10;84.90;;;;;;4979724;28;20022;-69
2023/07/03 10:54:45;;;;;;;6.75;2.08;;;15.10;83.60;;;;;;4936823;28;20068;-67
2023/07/03 10:57:17;;;;;;;11.13;1.90;;;15.40;85.00;;;;;;4987071;28;20085;-68
2023/07/03 10:59:48;;;;;;;6.10;1.65;;;15.60;83.80;;;;;;4986451;28;20316;-67
2023/07/03 11:02:28;;;;;;;6.28;1.70;;;15.90;83.20;;;;;;4965412;28;20374;-68
2023/07/03 11:05:22;;;;;;;6.17;1.53;;;16.00;81.80;;;;;;4981875;28;20057;-69
2023/07/03 11:08:00;;;;;;;5.47;1.40;;;16.10;82.10;;;;;;4983837;28;20034;-68
2023/07/03 11:10:54;;;;;;;5.90;1.75;;;16.30;80.30;;;;;;4985154;28;20034;-68
2023/07/03 11:13:49;;;;;;;6.90;1.20;;;16.70;79.70;;;;;;4983919;28;20066;-67
2023/07/03 11:16:16;;;;;;;4.82;1.23;;;16.70;77.50;;;;;;4974589;28;20030;-67
2023/07/03 11:18:54;;;;;;;5.57;1.52;;;16.70;76.70;;;;;;4976699;28;20022;-67
2023/07/03 11:21:22;;;;;;;4.80;1.20;;;16.80;78.80;;;;;;4981852;28;20050;-67
2023/07/03 11:24:03;;;;;;;7.97;1.63;;;16.60;77.70;;;;;;4983373;28;20413;-67
2023/07/03 11:26:36;;;;;;;10.27;2.07;;;16.50;77.40;;;;;;4991308;28;20025;-68
2023/07/03 11:29:05;;;;;;;4.78;1.55;;;16.40;78.60;;;;;;4985658;28;20042;-68
2023/07/03 11:31:31;;;;;;;6.05;1.63;;;16.20;77.70;;;;;;4991203;28;20168;-68
2023/07/03 11:33:58;;;;;;;4.10;1.40;;;16.00;78.10;;;;;;4964488;28;20082;-67
2023/07/03 11:36:51;;;;;;;5.55;1.50;;;16.00;78.40;;;;;;4965999;28;20022;-66
2023/07/03 11:39:29;;;;;;;4.72;1.30;;;15.80;78.40;;;;;;4982089;28;20052;-67
2023/07/03 11:42:10;;;;;;;4.05;1.00;;;15.40;78.60;;;;;;4983788;28;20027;-66
2023/07/03 11:44:46;;;;;;;3.38;0.90;;;14.90;80.10;;;;;;4986176;28;20120;-67
2023/07/03 11:47:17;;;;;;;4.25;1.02;;;14.60;81.80;;;;;;4993485;28;20487;-67
2023/07/03 11:49:47;;;;;;;1.58;0.93;;;14.50;82.60;;;;;;4991194;28;20052;-67
2023/07/03 11:52:21;;;;;;;3.50;1.00;;;14.40;83.90;;;;;;4984179;28;20382;-67
2023/07/03 11:55:02;;;;;;;6.70;1.33;;;14.30;83.70;;;;;;4982246;28;20031;-67
2023/07/03 11:57:32;;;;;;;3.60;1.00;;;14.30;83.80;;;;;;4990156;28;20084;-66
2023/07/03 12:00:24;;;;;;;3.50;1.20;;;14.40;83.80;;;;;;4982011;28;20125;-68
2023/07/03 12:02:53;;;;;;;4.45;1.10;;;14.50;83.90;;;;;;4988331;28;20102;-66
2023/07/03 12:05:43;;;;;;;5.68;0.95;;;14.60;83.30;;;;;;4981943;28;20054;-66
2023/07/03 12:08:18;;;;;;;6.20;1.10;;;14.70;82.50;;;;;;4981157;28;20026;-66
2023/07/03 12:10:49;;;;;;;3.00;0.95;;;14.80;81.70;;;;;;4979703;28;20070;-67
2023/07/03 12:13:39;;;;;;;3.58;1.25;;;15.00;82.40;;;;;;4978787;28;20053;-67
2023/07/03 12:16:13;;;;;;;3.28;1.20;;;15.30;81.00;;;;;;4980935;28;20035;-68
2023/07/03 12:18:38;;;;;;;6.53;1.20;;;15.60;79.80;;;;;;4970036;28;20431;-67
2023/07/03 12:21:05;;;;;;;6.53;1.17;;;16.00;78.60;;;;;;4976541;28;20030;-66
2023/07/03 12:23:34;;;;;;;2.00;0.90;;;16.30;76.50;;;;;;4965229;28;20030;-66
2023/07/03 12:26:01;;;;;;;4.93;0.98;;;16.40;76.40;;;;;;4959498;28;20046;-66
2023/07/03 12:28:27;;;;;;;4.22;0.90;;;16.40;74.30;;;;;;4963977;28;20346;-67
2023/07/03 12:31:07;;;;;;;7.57;1.25;;;16.60;73.90;;;;;;4981598;28;20035;-66
2023/07/03 12:33:32;;;;;;;5.60;1.23;;;16.90;74.70;;;;;;4990125;28;20380;-66
2023/07/03 12:35:58;;;;;;;3.25;1.08;;;17.80;73.00;;;;;;4989944;28;20136;-66
2023/07/03 12:38:23;;;;;;;4.90;1.10;;;18.00;72.30;;;;;;4983266;28;20352;-67
2023/07/03 12:40:49;;;;;;;3.85;0.98;;;17.60;72.20;;;;;;4992132;28;20033;-67
2023/07/03 12:43:16;;;;;;;4.50;1.23;;;17.60;71.90;;;;;;4985029;28;20405;-66
2023/07/03 12:45:42;;;;;;;7.82;1.42;;;17.60;72.10;;;;;;4978874;28;20146;-66
2023/07/03 12:48:17;;;;;;;5.03;1.35;;;17.60;72.40;;;;;;4986427;28;20038;-67